sensor_id;sensor_type;location;lat;lon;timestamp;pressure;altitude;pressure_sealevel;temperature;humidity
24788;BME280;12883;52.662;5.196;2022-12-07T00:03:33;101803.28;;;4.83;100.00
24788;BME280;12883;52.662;5.196;2022-12-07T00:05:59;101809.25;;;4.95;100.00
24788;BME280;12883;52.662;5.196;2022-12-07T00:08:24;101818.81;;;5.05;100.00
24788;BME280;12883;52.662;5.196;2022-12-07T00:10:50;101826.69;;;4.96;100.00
24788;BME280;12883;52.662;5.196;2022-12-07T00:13:15;101813.00;;;4.92;100.00
24788;BME280;12883;52.662;5.196;2022-12-07T00:15:40;101817.28;;;4.93;100.00
24788;BME280;12883;52.662;5.196;2022-12-07T00:18:06;101822.97;;;4.98;100.00
24788;BME280;12883;52.662;5.196;2022-12-07T00:20:31;101811.59;;;4.98;100.00
24788;BME280;12883;52.662;5.196;2022-12-07T00:22:56;101822.66;;;5.01;100.00
24788;BME280;12883;52.662;5.196;2022-12-07T00:25:22;101823.63;;;5.00;100.00
24788;BME280;12883;52.662;5.196;2022-12-07T00:27:47;101816.97;;;5.06;100.00
24788;BME280;12883;52.662;5.196;2022-12-07T00:30:12;101829.72;;;5.01;100.00
24788;BME280;12883;52.662;5.196;2022-12-07T00:32:38;101820.59;;;4.95;100.00
24788;BME280;12883;52.662;5.196;2022-12-07T00:35:03;101817.81;;;5.06;100.00
24788;BME280;12883;52.662;5.196;2022-12-07T00:37:29;101819.19;;;5.10;100.00
24788;BME280;12883;52.662;5.196;2022-12-07T00:39:54;101804.69;;;5.06;100.00
24788;BME280;12883;52.662;5.196;2022-12-07T00:42:19;101801.19;;;5.06;100.00
24788;BME280;12883;52.662;5.196;2022-12-07T00:44:45;101815.59;;;5.21;100.00
24788;BME280;12883;52.662;5.196;2022-12-07T00:47:10;101813.38;;;5.16;100.00
24788;BME280;12883;52.662;5.196;2022-12-07T00:49:36;101805.22;;;5.29;100.00
24788;BME280;12883;52.662;5.196;2022-12-07T00:52:01;101810.06;;;5.33;100.00
24788;BME280;12883;52.662;5.196;2022-12-07T00:54:26;101812.94;;;5.30;100.00
24788;BME280;12883;52.662;5.196;2022-12-07T00:56:51;101791.19;;;5.38;100.00
24788;BME280;12883;52.662;5.196;2022-12-07T00:59:17;101800.06;;;5.46;100.00
24788;BME280;12883;52.662;5.196;2022-12-07T01:01:42;101799.19;;;5.55;100.00
24788;BME280;12883;52.662;5.196;2022-12-07T01:04:08;101781.47;;;5.48;100.00
24788;BME280;12883;52.662;5.196;2022-12-07T01:06:33;101790.72;;;5.61;100.00
24788;BME280;12883;52.662;5.196;2022-12-07T01:08:59;101770.97;;;5.38;100.00
24788;BME280;12883;52.662;5.196;2022-12-07T01:11:27;101795.88;;;5.53;100.00
24788;BME280;12883;52.662;5.196;2022-12-07T01:13:54;101795.00;;;5.62;100.00
24788;BME280;12883;52.662;5.196;2022-12-07T01:16:22;101788.63;;;5.65;100.00
24788;BME280;12883;52.662;5.196;2022-12-07T01:18:52;101798.78;;;5.50;100.00
24788;BME280;12883;52.662;5.196;2022-12-07T01:21:21;101767.94;;;5.33;100.00
24788;BME280;12883;52.662;5.196;2022-12-07T01:23:47;101768.50;;;5.37;100.00
24788;BME280;12883;52.662;5.196;2022-12-07T01:26:17;101780.91;;;5.54;100.00
24788;BME280;12883;52.662;5.196;2022-12-07T01:28:42;101784.06;;;5.57;100.00
24788;BME280;12883;52.662;5.196;2022-12-07T01:31:13;101791.94;;;5.67;100.00
24788;BME280;12883;52.662;5.196;2022-12-07T01:33:44;101781.03;;;5.52;100.00
24788;BME280;12883;52.662;5.196;2022-12-07T01:38:38;101777.03;;;5.58;100.00
24788;BME280;12883;52.662;5.196;2022-12-07T01:41:04;101780.66;;;5.47;100.00
24788;BME280;12883;52.662;5.196;2022-12-07T01:43:31;101788.66;;;5.55;100.00
24788;BME280;12883;52.662;5.196;2022-12-07T01:45:57;101781.19;;;5.51;100.00
24788;BME280;12883;52.662;5.196;2022-12-07T01:48:27;101785.63;;;5.50;100.00
24788;BME280;12883;52.662;5.196;2022-12-07T01:50:56;101793.41;;;5.42;100.00
24788;BME280;12883;52.662;5.196;2022-12-07T01:53:25;101791.06;;;5.39;100.00
24788;BME280;12883;52.662;5.196;2022-12-07T01:55:54;101767.66;;;5.36;100.00
24788;BME280;12883;52.662;5.196;2022-12-07T01:58:21;101788.97;;;5.43;100.00
24788;BME280;12883;52.662;5.196;2022-12-07T02:00:47;101772.34;;;5.42;100.00
24788;BME280;12883;52.662;5.196;2022-12-07T02:03:18;101775.97;;;5.41;100.00
24788;BME280;12883;52.662;5.196;2022-12-07T02:05:46;101744.19;;;5.06;100.00
24788;BME280;12883;52.662;5.196;2022-12-07T02:08:13;101765.44;;;5.41;100.00
24788;BME280;12883;52.662;5.196;2022-12-07T02:10:39;101772.34;;;5.42;100.00
24788;BME280;12883;52.662;5.196;2022-12-07T02:13:09;101769.31;;;5.37;100.00
24788;BME280;12883;52.662;5.196;2022-12-07T02:18:43;101765.16;;;5.35;100.00
24788;BME280;12883;52.662;5.196;2022-12-07T02:23:41;101774.41;;;5.48;100.00
24788;BME280;12883;52.662;5.196;2022-12-07T02:29:20;101756.50;;;5.61;100.00
24788;BME280;12883;52.662;5.196;2022-12-07T02:32:03;101757.63;;;5.59;100.00
24788;BME280;12883;52.662;5.196;2022-12-07T02:34:44;101763.22;;;5.73;100.00
24788;BME280;12883;52.662;5.196;2022-12-07T02:37:27;101749.53;;;5.79;100.00
24788;BME280;12883;52.662;5.196;2022-12-07T02:40:01;101709.16;;;5.52;100.00
24788;BME280;12883;52.662;5.196;2022-12-07T02:42:35;101763.94;;;5.75;100.00
24788;BME280;12883;52.662;5.196;2022-12-07T02:45:02;101752.16;;;5.79;100.00
24788;BME280;12883;52.662;5.196;2022-12-07T02:47:31;101751.31;;;5.79;100.00
24788;BME280;12883;52.662;5.196;2022-12-07T02:49:58;101746.97;;;5.87;100.00
24788;BME280;12883;52.662;5.196;2022-12-07T02:52:23;101751.97;;;5.90;100.00
24788;BME280;12883;52.662;5.196;2022-12-07T02:54:49;101745.41;;;5.94;100.00
24788;BME280;12883;52.662;5.196;2022-12-07T02:57:34;101747.38;;;5.92;100.00
24788;BME280;12883;52.662;5.196;2022-12-07T03:00:11;101648.56;;;5.34;100.00
24788;BME280;12883;52.662;5.196;2022-12-07T03:03:00;101731.72;;;5.91;100.00
24788;BME280;12883;52.662;5.196;2022-12-07T03:05:48;101745.41;;;5.94;100.00
24788;BME280;12883;52.662;5.196;2022-12-07T03:11:04;101754.22;;;5.85;100.00
24788;BME280;12883;52.662;5.196;2022-12-07T03:13:47;101756.16;;;5.83;100.00
24788;BME280;12883;52.662;5.196;2022-12-07T03:19:03;101745.97;;;5.61;100.00
24788;BME280;12883;52.662;5.196;2022-12-07T03:21:38;101752.59;;;5.65;100.00
24788;BME280;12883;52.662;5.196;2022-12-07T03:24:12;101750.53;;;5.59;100.00
24788;BME280;12883;52.662;5.196;2022-12-07T03:26:41;101750.69;;;5.58;100.00
24788;BME280;12883;52.662;5.196;2022-12-07T03:29:12;101750.44;;;5.51;100.00
24788;BME280;12883;52.662;5.196;2022-12-07T03:31:41;101745.16;;;5.51;100.00
24788;BME280;12883;52.662;5.196;2022-12-07T03:34:32;101753.53;;;5.37;100.00
24788;BME280;12883;52.662;5.196;2022-12-07T03:37:09;101747.16;;;5.30;100.00
24788;BME280;12883;52.662;5.196;2022-12-07T03:39:43;101736.41;;;5.24;100.00
24788;BME280;12883;52.662;5.196;2022-12-07T03:42:10;101704.06;;;4.95;100.00
24788;BME280;12883;52.662;5.196;2022-12-07T03:44:36;101736.97;;;5.08;100.00
24788;BME280;12883;52.662;5.196;2022-12-07T03:49:57;101737.84;;;4.99;100.00
24788;BME280;12883;52.662;5.196;2022-12-07T03:52:28;101745.00;;;4.97;100.00
24788;BME280;12883;52.662;5.196;2022-12-07T03:55:00;101740.59;;;4.98;100.00
24788;BME280;12883;52.662;5.196;2022-12-07T03:57:28;101736.84;;;5.00;100.00
24788;BME280;12883;52.662;5.196;2022-12-07T03:59:56;101742.25;;;4.99;100.00
24788;BME280;12883;52.662;5.196;2022-12-07T04:02:23;101738.09;;;4.96;100.00
24788;BME280;12883;52.662;5.196;2022-12-07T04:04:50;101747.81;;;4.96;100.00
24788;BME280;12883;52.662;5.196;2022-12-07T04:07:15;101754.84;;;4.95;100.00
24788;BME280;12883;52.662;5.196;2022-12-07T04:09:41;101753.88;;;4.96;100.00
24788;BME280;12883;52.662;5.196;2022-12-07T04:12:06;101758.44;;;4.94;100.00
24788;BME280;12883;52.662;5.196;2022-12-07T04:14:32;101754.16;;;4.93;100.00
24788;BME280;12883;52.662;5.196;2022-12-07T04:16:58;101748.34;;;5.09;100.00
24788;BME280;12883;52.662;5.196;2022-12-07T04:19:29;101757.59;;;5.13;100.00
24788;BME280;12883;52.662;5.196;2022-12-07T04:21:55;101752.31;;;5.13;100.00
24788;BME280;12883;52.662;5.196;2022-12-07T04:24:21;101747.50;;;5.08;100.00
24788;BME280;12883;52.662;5.196;2022-12-07T04:26:47;101755.94;;;5.12;100.00
24788;BME280;12883;52.662;5.196;2022-12-07T04:29:13;101751.22;;;5.06;100.00
24788;BME280;12883;52.662;5.196;2022-12-07T04:31:39;101748.34;;;5.09;100.00
24788;BME280;12883;52.662;5.196;2022-12-07T04:34:06;101750.25;;;5.16;100.00
24788;BME280;12883;52.662;5.196;2022-12-07T04:36:32;101741.97;;;5.11;100.00
24788;BME280;12883;52.662;5.196;2022-12-07T04:38:57;101741.69;;;5.14;100.00
24788;BME280;12883;52.662;5.196;2022-12-07T04:41:24;101739.34;;;5.11;100.00
24788;BME280;12883;52.662;5.196;2022-12-07T04:43:57;101715.69;;;4.92;100.00
24788;BME280;12883;52.662;5.196;2022-12-07T04:46:24;101742.78;;;5.12;100.00
24788;BME280;12883;52.662;5.196;2022-12-07T04:48:50;101738.19;;;5.23;100.00
24788;BME280;12883;52.662;5.196;2022-12-07T04:51:20;101699.06;;;4.92;100.00
24788;BME280;12883;52.662;5.196;2022-12-07T04:53:46;101754.78;;;5.33;100.00
24788;BME280;12883;52.662;5.196;2022-12-07T04:56:11;101698.47;;;5.17;100.00
24788;BME280;12883;52.662;5.196;2022-12-07T04:58:37;101740.59;;;5.53;100.00
24788;BME280;12883;52.662;5.196;2022-12-07T05:01:02;101734.09;;;5.48;100.00
24788;BME280;12883;52.662;5.196;2022-12-07T05:03:28;101726.38;;;5.46;100.00
24788;BME280;12883;52.662;5.196;2022-12-07T05:05:53;101728.28;;;5.44;100.00
24788;BME280;12883;52.662;5.196;2022-12-07T05:08:18;101732.88;;;5.42;100.00
24788;BME280;12883;52.662;5.196;2022-12-07T05:10:44;101714.06;;;5.37;100.00
24788;BME280;12883;52.662;5.196;2022-12-07T05:13:09;101708.97;;;5.26;100.00
24788;BME280;12883;52.662;5.196;2022-12-07T05:15:34;101711.50;;;5.18;100.00
24788;BME280;12883;52.662;5.196;2022-12-07T05:17:59;101711.88;;;5.23;100.00
24788;BME280;12883;52.662;5.196;2022-12-07T05:20:25;101712.06;;;5.12;100.00
24788;BME280;12883;52.662;5.196;2022-12-07T05:22:50;101714.84;;;5.01;100.00
24788;BME280;12883;52.662;5.196;2022-12-07T05:25:16;101720.09;;;5.01;100.00
24788;BME280;12883;52.662;5.196;2022-12-07T05:27:41;101719.25;;;5.01;100.00
24788;BME280;12883;52.662;5.196;2022-12-07T05:30:07;101714.84;;;5.01;100.00
24788;BME280;12883;52.662;5.196;2022-12-07T05:32:32;101713.88;;;4.93;100.00
24788;BME280;12883;52.662;5.196;2022-12-07T05:34:57;101723.03;;;4.89;100.00
24788;BME280;12883;52.662;5.196;2022-12-07T05:37:23;101721.09;;;4.72;100.00
24788;BME280;12883;52.662;5.196;2022-12-07T05:39:48;101719.88;;;4.76;100.00
24788;BME280;12883;52.662;5.196;2022-12-07T05:42:13;101718.03;;;4.86;100.00
24788;BME280;12883;52.662;5.196;2022-12-07T05:44:43;101727.75;;;4.85;100.00
24788;BME280;12883;52.662;5.196;2022-12-07T05:47:13;101707.56;;;4.57;100.00
24788;BME280;12883;52.662;5.196;2022-12-07T05:49:39;101680.19;;;4.41;100.00
24788;BME280;12883;52.662;5.196;2022-12-07T05:52:05;101684.47;;;4.33;100.00
24788;BME280;12883;52.662;5.196;2022-12-07T05:54:30;101718.75;;;4.59;100.00
24788;BME280;12883;52.662;5.196;2022-12-07T05:56:55;101704.94;;;4.57;100.00
24788;BME280;12883;52.662;5.196;2022-12-07T05:59:21;101688.19;;;4.40;100.00
24788;BME280;12883;52.662;5.196;2022-12-07T06:04:18;101716.38;;;4.19;100.00
24788;BME280;12883;52.662;5.196;2022-12-07T06:06:43;101701.59;;;4.18;100.00
24788;BME280;12883;52.662;5.196;2022-12-07T06:09:09;101712.91;;;4.18;100.00
24788;BME280;12883;52.662;5.196;2022-12-07T06:11:34;101717.75;;;4.13;100.00
24788;BME280;12883;52.662;5.196;2022-12-07T06:14:19;101698.50;;;3.94;100.00
24788;BME280;12883;52.662;5.196;2022-12-07T06:16:44;101709.88;;;4.04;100.00
24788;BME280;12883;52.662;5.196;2022-12-07T06:19:10;101706.53;;;4.11;100.00
24788;BME280;12883;52.662;5.196;2022-12-07T06:21:35;101690.25;;;3.98;100.00
24788;BME280;12883;52.662;5.196;2022-12-07T06:24:01;101702.66;;;4.06;100.00
24788;BME280;12883;52.662;5.196;2022-12-07T06:26:27;101723.84;;;4.23;100.00
24788;BME280;12883;52.662;5.196;2022-12-07T06:28:52;101723.72;;;4.34;100.00
24788;BME280;12883;52.662;5.196;2022-12-07T06:31:17;101728.44;;;4.31;100.00
24788;BME280;12883;52.662;5.196;2022-12-07T06:33:43;101682.22;;;4.09;100.00
24788;BME280;12883;52.662;5.196;2022-12-07T06:36:09;101726.38;;;4.44;100.00
24788;BME280;12883;52.662;5.196;2022-12-07T06:38:34;101693.44;;;4.02;100.00
24788;BME280;12883;52.662;5.196;2022-12-07T06:41:00;101723.97;;;4.03;100.00
24788;BME280;12883;52.662;5.196;2022-12-07T06:43:25;101707.47;;;3.82;100.00
24788;BME280;12883;52.662;5.196;2022-12-07T06:45:51;101716.16;;;3.82;100.00
24788;BME280;12883;52.662;5.196;2022-12-07T06:48:16;101717.13;;;3.81;100.00
24788;BME280;12883;52.662;5.196;2022-12-07T06:50:44;101715.88;;;3.76;100.00
24788;BME280;12883;52.662;5.196;2022-12-07T06:53:10;101713.03;;;3.58;100.00
24788;BME280;12883;52.662;5.196;2022-12-07T06:55:35;101706.94;;;3.58;100.00
24788;BME280;12883;52.662;5.196;2022-12-07T06:58:01;101716.28;;;3.41;100.00
24788;BME280;12883;52.662;5.196;2022-12-07T07:00:27;101721.97;;;3.46;100.00
24788;BME280;12883;52.662;5.196;2022-12-07T07:02:53;101709.72;;;3.56;100.00
24788;BME280;12883;52.662;5.196;2022-12-07T07:05:18;101709.50;;;3.69;100.00
24788;BME280;12883;52.662;5.196;2022-12-07T07:07:43;101716.69;;;3.67;100.00
24788;BME280;12883;52.662;5.196;2022-12-07T07:10:09;101715.91;;;3.85;100.00
24788;BME280;12883;52.662;5.196;2022-12-07T07:12:34;101726.25;;;3.87;100.00
24788;BME280;12883;52.662;5.196;2022-12-07T07:15:00;101721.72;;;3.89;100.00
24788;BME280;12883;52.662;5.196;2022-12-07T07:17:25;101725.31;;;3.88;100.00
24788;BME280;12883;52.662;5.196;2022-12-07T07:19:50;101726.59;;;4.03;100.00
24788;BME280;12883;52.662;5.196;2022-12-07T07:22:16;101734.72;;;4.00;100.00
24788;BME280;12883;52.662;5.196;2022-12-07T07:24:41;101740.41;;;4.05;100.00
24788;BME280;12883;52.662;5.196;2022-12-07T07:27:06;101743.03;;;4.05;100.00
24788;BME280;12883;52.662;5.196;2022-12-07T07:29:31;101742.47;;;4.01;100.00
24788;BME280;12883;52.662;5.196;2022-12-07T07:31:57;101743.03;;;4.05;100.00
24788;BME280;12883;52.662;5.196;2022-12-07T07:34:22;101744.25;;;4.01;100.00
24788;BME280;12883;52.662;5.196;2022-12-07T07:36:48;101736.06;;;3.85;100.00
24788;BME280;12883;52.662;5.196;2022-12-07T07:39:13;101735.00;;;3.97;100.00
24788;BME280;12883;52.662;5.196;2022-12-07T07:41:38;101737.84;;;3.75;100.00
24788;BME280;12883;52.662;5.196;2022-12-07T07:44:04;101735.69;;;3.59;100.00
24788;BME280;12883;52.662;5.196;2022-12-07T07:46:29;101732.09;;;3.60;100.00
24788;BME280;12883;52.662;5.196;2022-12-07T07:48:55;101740.13;;;3.68;100.00
24788;BME280;12883;52.662;5.196;2022-12-07T07:51:20;101736.25;;;3.63;100.00
24788;BME280;12883;52.662;5.196;2022-12-07T07:53:46;101730.03;;;3.64;100.00
24788;BME280;12883;52.662;5.196;2022-12-07T07:56:11;101704.97;;;3.41;100.00
24788;BME280;12883;52.662;5.196;2022-12-07T07:58:37;101738.16;;;3.91;100.00
24788;BME280;12883;52.662;5.196;2022-12-07T08:01:05;101764.44;;;4.00;100.00
24788;BME280;12883;52.662;5.196;2022-12-07T08:03:31;101733.78;;;4.10;100.00
24788;BME280;12883;52.662;5.196;2022-12-07T08:05:56;101729.00;;;4.44;100.00
24788;BME280;12883;52.662;5.196;2022-12-07T08:08:22;101725.00;;;4.58;100.00
24788;BME280;12883;52.662;5.196;2022-12-07T08:10:48;101730.66;;;4.63;100.00
24788;BME280;12883;52.662;5.196;2022-12-07T08:13:16;101733.97;;;4.65;100.00
24788;BME280;12883;52.662;5.196;2022-12-07T08:15:46;101730.25;;;4.58;100.00
24788;BME280;12883;52.662;5.196;2022-12-07T08:18:13;101730.25;;;4.58;100.00
24788;BME280;12883;52.662;5.196;2022-12-07T08:20:39;101725.97;;;4.57;100.00
24788;BME280;12883;52.662;5.196;2022-12-07T08:23:05;101729.25;;;4.50;100.00
24788;BME280;12883;52.662;5.196;2022-12-07T08:25:31;101730.66;;;4.54;100.00
24788;BME280;12883;52.662;5.196;2022-12-07T08:27:58;101731.75;;;4.52;100.00
24788;BME280;12883;52.662;5.196;2022-12-07T08:30:23;101730.91;;;4.42;100.00
24788;BME280;12883;52.662;5.196;2022-12-07T08:32:49;101729.28;;;4.59;100.00
24788;BME280;12883;52.662;5.196;2022-12-07T08:35:15;101754.44;;;4.53;100.00
24788;BME280;12883;52.662;5.196;2022-12-07T08:37:41;101741.00;;;4.55;100.00
24788;BME280;12883;52.662;5.196;2022-12-07T08:40:08;101746.16;;;4.66;100.00
24788;BME280;12883;52.662;5.196;2022-12-07T08:42:34;101732.31;;;4.74;100.00
24788;BME280;12883;52.662;5.196;2022-12-07T08:45:07;101694.00;;;4.34;100.00
24788;BME280;12883;52.662;5.196;2022-12-07T08:47:35;101721.81;;;4.46;100.00
24788;BME280;12883;52.662;5.196;2022-12-07T08:50:02;101724.31;;;4.47;100.00
24788;BME280;12883;52.662;5.196;2022-12-07T08:52:33;101719.88;;;4.57;100.00
24788;BME280;12883;52.662;5.196;2022-12-07T08:54:59;101740.75;;;4.77;100.00
24788;BME280;12883;52.662;5.196;2022-12-07T08:57:27;101724.41;;;4.83;100.00
24788;BME280;12883;52.662;5.196;2022-12-07T08:59:53;101664.28;;;4.43;100.00
24788;BME280;12883;52.662;5.196;2022-12-07T09:02:18;101740.59;;;5.07;100.00
24788;BME280;12883;52.662;5.196;2022-12-07T09:04:44;101732.41;;;5.01;100.00
24788;BME280;12883;52.662;5.196;2022-12-07T09:07:09;101738.94;;;5.06;100.00
24788;BME280;12883;52.662;5.196;2022-12-07T09:09:35;101736.84;;;5.00;100.00
24788;BME280;12883;52.662;5.196;2022-12-07T09:12:00;101734.09;;;5.02;100.00
24788;BME280;12883;52.662;5.196;2022-12-07T09:14:26;101733.94;;;5.03;100.00
24788;BME280;12883;52.662;5.196;2022-12-07T09:16:51;101735.03;;;5.01;100.00
24788;BME280;12883;52.662;5.196;2022-12-07T09:19:16;101737.28;;;5.05;100.00
24788;BME280;12883;52.662;5.196;2022-12-07T09:21:42;101737.97;;;4.98;100.00
24788;BME280;12883;52.662;5.196;2022-12-07T09:24:07;101732.81;;;5.06;100.00
24788;BME280;12883;52.662;5.196;2022-12-07T09:26:34;101728.66;;;5.13;100.00
24788;BME280;12883;52.662;5.196;2022-12-07T09:29:02;101668.09;;;4.76;100.00
24788;BME280;12883;52.662;5.196;2022-12-07T09:31:27;101736.09;;;5.27;100.00
24788;BME280;12883;52.662;5.196;2022-12-07T09:33:57;101732.53;;;5.18;100.00
24788;BME280;12883;52.662;5.196;2022-12-07T09:36:23;101738.31;;;5.31;100.00
24788;BME280;12883;52.662;5.196;2022-12-07T09:38:48;101743.00;;;5.37;100.00
24788;BME280;12883;52.662;5.196;2022-12-07T09:41:13;101741.88;;;5.40;100.00
24788;BME280;12883;52.662;5.196;2022-12-07T09:43:41;101734.94;;;5.48;100.00
24788;BME280;12883;52.662;5.196;2022-12-07T09:46:13;101677.44;;;5.17;100.00
24788;BME280;12883;52.662;5.196;2022-12-07T09:48:39;101735.94;;;5.74;100.00
24788;BME280;12883;52.662;5.196;2022-12-07T09:53:41;101715.16;;;5.71;100.00
24788;BME280;12883;52.662;5.196;2022-12-07T09:56:11;101730.09;;;5.80;100.00
24788;BME280;12883;52.662;5.196;2022-12-07T09:58:38;101732.16;;;5.86;100.00
24788;BME280;12883;52.662;5.196;2022-12-07T10:03:39;101700.44;;;5.78;100.00
24788;BME280;12883;52.662;5.196;2022-12-07T10:06:05;101725.16;;;6.04;100.00
24788;BME280;12883;52.662;5.196;2022-12-07T10:08:32;101717.25;;;6.04;100.00
24788;BME280;12883;52.662;5.196;2022-12-07T10:10:57;101718.22;;;6.03;100.00
24788;BME280;12883;52.662;5.196;2022-12-07T10:13:38;101692.16;;;6.00;100.00
24788;BME280;12883;52.662;5.196;2022-12-07T10:16:04;101728.72;;;6.30;100.00
24788;BME280;12883;52.662;5.196;2022-12-07T10:18:37;101710.03;;;6.41;100.00
24788;BME280;12883;52.662;5.196;2022-12-07T10:23:33;101702.97;;;6.24;100.00
24788;BME280;12883;52.662;5.196;2022-12-07T10:25:59;101719.59;;;6.42;100.00
24788;BME280;12883;52.662;5.196;2022-12-07T10:28:33;101715.84;;;6.45;100.00
24788;BME280;12883;52.662;5.196;2022-12-07T10:31:03;101715.16;;;6.60;100.00
24788;BME280;12883;52.662;5.196;2022-12-07T10:33:54;101698.94;;;6.73;100.00
24788;BME280;12883;52.662;5.196;2022-12-07T10:38:52;101692.59;;;6.83;100.00
24788;BME280;12883;52.662;5.196;2022-12-07T10:41:18;101690.19;;;6.90;100.00
24788;BME280;12883;52.662;5.196;2022-12-07T10:43:49;101690.72;;;6.93;100.00
24788;BME280;12883;52.662;5.196;2022-12-07T10:49:01;101694.34;;;6.92;100.00
24788;BME280;12883;52.662;5.196;2022-12-07T10:51:43;101697.19;;;6.99;100.00
24788;BME280;12883;52.662;5.196;2022-12-07T10:57:05;101691.16;;;7.06;100.00
24788;BME280;12883;52.662;5.196;2022-12-07T10:59:42;101685.53;;;7.09;100.00
24788;BME280;12883;52.662;5.196;2022-12-07T11:02:25;101690.25;;;7.23;100.00
24788;BME280;12883;52.662;5.196;2022-12-07T11:05:06;101668.22;;;7.07;100.00
24788;BME280;12883;52.662;5.196;2022-12-07T11:07:47;101683.00;;;7.25;100.00
24788;BME280;12883;52.662;5.196;2022-12-07T11:10:44;101692.97;;;7.39;100.00
24788;BME280;12883;52.662;5.196;2022-12-07T11:18:36;101662.56;;;7.61;100.00
24788;BME280;12883;52.662;5.196;2022-12-07T11:21:20;101664.09;;;7.79;100.00
24788;BME280;12883;52.662;5.196;2022-12-07T11:23:59;101650.22;;;7.77;100.00
24788;BME280;12883;52.662;5.196;2022-12-07T11:31:51;101651.47;;;8.07;100.00
24788;BME280;12883;52.662;5.196;2022-12-07T11:34:45;101647.97;;;7.98;100.00
24788;BME280;12883;52.662;5.196;2022-12-07T11:37:18;101652.75;;;7.95;100.00
24788;BME280;12883;52.662;5.196;2022-12-07T11:39:51;101654.28;;;8.05;100.00
24788;BME280;12883;52.662;5.196;2022-12-07T11:42:37;101656.41;;;8.02;100.00
24788;BME280;12883;52.662;5.196;2022-12-07T11:45:17;101674.22;;;7.92;100.00
24788;BME280;12883;52.662;5.196;2022-12-07T11:47:55;101652.59;;;7.88;100.00
24788;BME280;12883;52.662;5.196;2022-12-07T11:50:46;101652.59;;;7.96;100.00
24788;BME280;12883;52.662;5.196;2022-12-07T11:53:17;101656.03;;;7.89;100.00
24788;BME280;12883;52.662;5.196;2022-12-07T11:55:57;101644.03;;;8.02;100.00
24788;BME280;12883;52.662;5.196;2022-12-07T12:02:03;101633.78;;;7.99;100.00
24788;BME280;12883;52.662;5.196;2022-12-07T12:06:41;101617.56;;;7.94;100.00
24788;BME280;12883;52.662;5.196;2022-12-07T12:09:24;101635.28;;;8.10;100.00
24788;BME280;12883;52.662;5.196;2022-12-07T12:12:24;101631.16;;;8.15;100.00
24788;BME280;12883;52.662;5.196;2022-12-07T12:15:08;101631.88;;;8.25;100.00
24788;BME280;12883;52.662;5.196;2022-12-07T12:24:00;101622.19;;;7.92;100.00
24788;BME280;12883;52.662;5.196;2022-12-07T12:26:31;101610.97;;;7.82;100.00
24788;BME280;12883;52.662;5.196;2022-12-07T12:29:03;101612.91;;;7.80;100.00
24788;BME280;12883;52.662;5.196;2022-12-07T12:31:37;101604.66;;;7.75;100.00
24788;BME280;12883;52.662;5.196;2022-12-07T12:42:51;101590.09;;;7.63;100.00
24788;BME280;12883;52.662;5.196;2022-12-07T12:45:23;101588.09;;;7.57;100.00
24788;BME280;12883;52.662;5.196;2022-12-07T12:48:00;101593.38;;;7.49;100.00
24788;BME280;12883;52.662;5.196;2022-12-07T12:50:36;101609.84;;;7.51;100.00
24788;BME280;12883;52.662;5.196;2022-12-07T12:53:14;101589.25;;;7.55;100.00
24788;BME280;12883;52.662;5.196;2022-12-07T13:00:44;101570.78;;;7.63;100.00
24788;BME280;12883;52.662;5.196;2022-12-07T13:03:29;101575.25;;;7.62;100.00
24788;BME280;12883;52.662;5.196;2022-12-07T13:06:18;101570.63;;;7.64;100.00
24788;BME280;12883;52.662;5.196;2022-12-07T13:08:44;101562.84;;;7.63;100.00
24788;BME280;12883;52.662;5.196;2022-12-07T13:11:40;101566.84;;;7.67;100.00
24788;BME280;12883;52.662;5.196;2022-12-07T13:17:00;101561.22;;;7.70;100.00
24788;BME280;12883;52.662;5.196;2022-12-07T13:25:22;101545.84;;;7.65;100.00
24788;BME280;12883;52.662;5.196;2022-12-07T13:28:09;101568.97;;;7.63;100.00
24788;BME280;12883;52.662;5.196;2022-12-07T13:30:45;101571.13;;;7.68;100.00
24788;BME280;12883;52.662;5.196;2022-12-07T13:33:12;101572.47;;;7.72;100.00
24788;BME280;12883;52.662;5.196;2022-12-07T13:35:39;101571.25;;;7.58;100.00
24788;BME280;12883;52.662;5.196;2022-12-07T13:38:13;101555.56;;;7.49;100.00
24788;BME280;12883;52.662;5.196;2022-12-07T13:40:40;101551.75;;;7.43;100.00
24788;BME280;12883;52.662;5.196;2022-12-07T13:43:13;101544.19;;;7.48;100.00
24788;BME280;12883;52.662;5.196;2022-12-07T13:45:40;101548.13;;;7.44;100.00
24788;BME280;12883;52.662;5.196;2022-12-07T13:48:23;101544.97;;;7.41;100.00
24788;BME280;12883;52.662;5.196;2022-12-07T13:50:57;101553.88;;;7.32;100.00
24788;BME280;12883;52.662;5.196;2022-12-07T13:53:23;101537.66;;;7.19;100.00
24788;BME280;12883;52.662;5.196;2022-12-07T13:55:50;101544.94;;;7.25;100.00
24788;BME280;12883;52.662;5.196;2022-12-07T13:58:15;101538.16;;;7.22;100.00
24788;BME280;12883;52.662;5.196;2022-12-07T14:00:41;101538.66;;;7.18;100.00
24788;BME280;12883;52.662;5.196;2022-12-07T14:05:41;101524.09;;;7.14;100.00
24788;BME280;12883;52.662;5.196;2022-12-07T14:13:35;101538.44;;;7.11;100.00
24788;BME280;12883;52.662;5.196;2022-12-07T14:18:41;101513.84;;;7.03;100.00
24788;BME280;12883;52.662;5.196;2022-12-07T14:23:36;101510.72;;;6.99;100.00
24788;BME280;12883;52.662;5.196;2022-12-07T14:26:08;101498.00;;;6.95;100.00
24788;BME280;12883;52.662;5.196;2022-12-07T14:28:37;101504.69;;;6.81;100.00
24788;BME280;12883;52.662;5.196;2022-12-07T14:31:03;101500.56;;;6.87;100.00
24788;BME280;12883;52.662;5.196;2022-12-07T14:33:32;101495.28;;;6.87;100.00
24788;BME280;12883;52.662;5.196;2022-12-07T14:35:57;101493.25;;;6.73;100.00
24788;BME280;12883;52.662;5.196;2022-12-07T14:38:24;101496.06;;;6.71;100.00